Time;durP1;ratioP1;P1;durP2;ratioP2;P2;SDS_P1;SDS_P2;PMS_P1;PMS_P2;Temp;Humidity;BMP_temperature;BMP_pressure;BME280_temperature;BME280_humidity;BME280_pressure;Samples;Min_cycle;Max_cycle;Signal;HPM_P1;HPM_P2
2023/08/06 00:00:29;;;;;;;12.70;9.40;;;15.70;99.90;;;;;;4874593;29;37748;-76
2023/08/06 00:02:55;;;;;;;13.63;10.02;;;15.70;99.90;;;;;;4866112;29;38460;-76
2023/08/06 00:05:21;;;;;;;12.73;9.32;;;15.70;99.90;;;;;;4874495;29;37247;-77
2023/08/06 00:07:48;;;;;;;12.77;9.75;;;15.70;99.90;;;;;;4873888;29;37730;-76
2023/08/06 00:10:15;;;;;;;14.48;10.80;;;15.70;99.90;;;;;;4862375;29;38377;-76
2023/08/06 00:12:41;;;;;;;12.85;9.73;;;15.70;99.90;;;;;;4874553;29;39116;-77
2023/08/06 00:15:08;;;;;;;13.70;10.27;;;15.70;99.90;;;;;;4860416;29;37352;-76
2023/08/06 00:17:34;;;;;;;16.92;11.50;;;15.70;99.90;;;;;;4871847;29;36879;-76
2023/08/06 00:20:04;;;;;;;23.08;13.85;;;15.70;99.90;;;;;;4871466;29;38024;-76
2023/08/06 00:22:35;;;;;;;20.15;13.52;;;15.70;99.90;;;;;;4863735;29;48279;-75
2023/08/06 00:25:02;;;;;;;15.30;11.82;;;15.60;99.90;;;;;;4875225;29;38402;-76
2023/08/06 00:27:28;;;;;;;23.83;15.93;;;15.60;99.90;;;;;;4871132;29;47382;-75
2023/08/06 00:29:54;;;;;;;24.20;15.82;;;15.60;99.90;;;;;;4871159;29;37606;-76
2023/08/06 00:32:21;;;;;;;22.17;15.43;;;15.60;99.90;;;;;;4869200;29;38029;-76
2023/08/06 00:34:49;;;;;;;15.80;13.45;;;15.60;99.90;;;;;;4870634;29;39689;-76
2023/08/06 00:37:16;;;;;;;17.23;13.77;;;15.60;99.90;;;;;;4862619;29;37254;-75
2023/08/06 00:39:43;;;;;;;14.80;12.90;;;15.60;99.90;;;;;;4870776;29;38777;-76
2023/08/06 00:42:10;;;;;;;18.35;12.80;;;15.60;99.90;;;;;;4872685;29;38450;-75
2023/08/06 00:44:37;;;;;;;20.77;15.10;;;15.60;99.90;;;;;;4865069;29;38483;-75
2023/08/06 00:47:04;;;;;;;16.85;13.07;;;15.60;99.90;;;;;;4869105;29;37914;-75
2023/08/06 00:49:30;;;;;;;17.50;14.02;;;15.60;99.90;;;;;;4872851;29;37600;-75
2023/08/06 00:51:57;;;;;;;20.05;14.18;;;15.60;99.90;;;;;;4870649;29;37719;-76
2023/08/06 00:54:24;;;;;;;19.02;15.43;;;15.60;99.90;;;;;;4868525;29;38662;-75
2023/08/06 00:56:51;;;;;;;16.83;13.27;;;15.60;99.90;;;;;;4866649;29;38465;-75
2023/08/06 00:59:17;;;;;;;17.60;14.63;;;15.60;99.90;;;;;;4866180;29;37547;-75
2023/08/06 01:04:13;;;;;;;15.13;12.82;;;15.60;99.90;;;;;;4866286;29;20056;-74
2023/08/06 01:06:51;;;;;;;17.90;14.35;;;15.60;99.90;;;;;;4887927;29;37481;-74
2023/08/06 01:09:34;;;;;;;16.83;14.38;;;15.60;99.90;;;;;;4890487;29;38984;-74
2023/08/06 01:12:12;;;;;;;17.55;12.02;;;15.60;99.90;;;;;;4891616;29;39419;-76
2023/08/06 01:15:14;;;;;;;14.27;11.70;;;15.60;99.90;;;;;;4894744;29;48773;-76
2023/08/06 01:17:41;;;;;;;17.92;14.15;;;15.60;99.90;;;;;;4875449;29;47207;-76
2023/08/06 01:20:07;;;;;;;16.85;13.43;;;15.60;99.90;;;;;;4885096;29;38474;-76
2023/08/06 01:22:33;;;;;;;13.27;11.27;;;15.60;99.90;;;;;;4892092;29;38464;-76
2023/08/06 01:24:59;;;;;;;12.45;11.07;;;15.60;99.90;;;;;;4894593;29;38885;-76
2023/08/06 01:27:46;;;;;;;14.73;12.00;;;15.60;99.90;;;;;;4894873;29;36294;-76
2023/08/06 01:30:23;;;;;;;15.77;11.48;;;15.60;99.90;;;;;;4901742;29;39511;-75
2023/08/06 01:32:54;;;;;;;21.83;14.25;;;15.60;99.90;;;;;;4889047;29;38192;-75
2023/08/06 01:35:21;;;;;;;11.10;8.35;;;15.70;99.90;;;;;;4895610;29;37771;-75
2023/08/06 01:37:48;;;;;;;13.77;11.15;;;15.70;99.90;;;;;;4892435;29;38084;-75
2023/08/06 01:40:14;;;;;;;11.82;10.20;;;15.70;99.90;;;;;;4879702;29;39026;-77
2023/08/06 01:42:40;;;;;;;17.48;13.23;;;15.70;99.90;;;;;;4894267;29;38200;-76
2023/08/06 01:45:08;;;;;;;11.38;10.23;;;15.70;99.90;;;;;;4894129;29;37022;-76
2023/08/06 01:47:35;;;;;;;15.60;12.35;;;15.70;99.90;;;;;;4896769;29;36698;-76
2023/08/06 01:50:01;;;;;;;13.70;12.30;;;15.70;99.90;;;;;;4895803;29;38873;-75
2023/08/06 01:52:28;;;;;;;15.38;12.05;;;15.70;99.90;;;;;;4893090;29;37558;-75
2023/08/06 01:54:54;;;;;;;16.85;14.15;;;15.70;99.90;;;;;;4883884;29;38150;-76
2023/08/06 01:57:21;;;;;;;19.70;14.63;;;15.80;99.90;;;;;;4888867;29;38197;-76
2023/08/06 01:59:47;;;;;;;16.58;14.80;;;15.70;99.90;;;;;;4894696;29;37686;-76
2023/08/06 02:02:13;;;;;;;15.05;13.45;;;15.80;99.90;;;;;;4893843;29;38549;-75
2023/08/06 02:04:39;;;;;;;15.93;13.73;;;15.80;99.90;;;;;;4894976;29;37235;-76
2023/08/06 02:07:05;;;;;;;18.40;14.95;;;15.80;99.90;;;;;;4893132;29;36538;-76
2023/08/06 02:09:32;;;;;;;18.23;15.23;;;15.80;99.90;;;;;;4894386;29;37432;-76
2023/08/06 02:11:58;;;;;;;16.77;14.45;;;15.80;99.90;;;;;;4894825;29;38084;-75
2023/08/06 02:14:24;;;;;;;19.90;15.13;;;15.80;99.90;;;;;;4890575;29;38530;-75
2023/08/06 02:16:50;;;;;;;14.25;12.85;;;15.80;99.90;;;;;;4894482;29;37592;-75
2023/08/06 02:19:16;;;;;;;27.35;18.60;;;15.80;99.90;;;;;;4893686;29;38013;-76
2023/08/06 02:21:42;;;;;;;24.67;17.92;;;15.80;99.90;;;;;;4895418;29;39283;-76
2023/08/06 02:24:08;;;;;;;18.50;16.15;;;15.80;99.90;;;;;;4890322;29;38367;-75
2023/08/06 02:26:34;;;;;;;25.80;20.27;;;15.80;99.90;;;;;;4891601;29;38289;-75
2023/08/06 02:29:01;;;;;;;24.10;19.25;;;15.80;99.90;;;;;;4893030;29;37685;-76
2023/08/06 02:31:27;;;;;;;27.38;20.15;;;15.80;99.90;;;;;;4891526;29;47004;-76
2023/08/06 02:33:53;;;;;;;33.47;24.10;;;15.80;99.90;;;;;;4885486;29;38639;-75
2023/08/06 02:36:19;;;;;;;19.42;17.40;;;15.80;99.90;;;;;;4887910;29;37103;-76
2023/08/06 02:38:46;;;;;;;26.15;20.83;;;15.80;99.90;;;;;;4891716;29;38831;-76
2023/08/06 02:41:12;;;;;;;18.27;16.05;;;15.80;99.90;;;;;;4893729;29;37947;-77
2023/08/06 02:43:38;;;;;;;22.20;19.67;;;15.70;99.90;;;;;;4896195;29;39316;-75
2023/08/06 02:46:04;;;;;;;30.42;22.13;;;15.70;99.90;;;;;;4890519;29;36349;-76
2023/08/06 02:48:30;;;;;;;24.95;21.20;;;15.70;99.90;;;;;;4891754;29;39419;-76
2023/08/06 02:51:00;;;;;;;25.90;21.73;;;15.70;99.90;;;;;;4894232;29;38961;-75
2023/08/06 02:53:26;;;;;;;26.58;22.63;;;15.70;99.90;;;;;;4892500;29;38389;-75
2023/08/06 02:55:52;;;;;;;25.58;21.33;;;15.70;99.90;;;;;;4895500;29;36351;-75
2023/08/06 02:58:22;;;;;;;20.38;17.73;;;15.70;99.90;;;;;;4891024;29;39848;-75
2023/08/06 03:01:05;;;;;;;20.23;16.02;;;15.70;99.90;;;;;;4892977;29;38535;-76
2023/08/06 03:03:31;;;;;;;14.70;12.93;;;15.70;99.90;;;;;;4907947;29;47209;-75
2023/08/06 03:06:01;;;;;;;13.90;11.05;;;15.60;99.90;;;;;;4892168;29;35087;-75
2023/08/06 03:08:28;;;;;;;13.20;10.88;;;15.60;99.90;;;;;;4895212;29;47282;-75
2023/08/06 03:10:54;;;;;;;6.60;5.80;;;15.60;99.90;;;;;;4894871;29;39252;-74
2023/08/06 03:13:20;;;;;;;6.43;4.90;;;15.60;99.90;;;;;;4892799;29;37280;-74
2023/08/06 03:15:54;;;;;;;4.50;3.90;;;15.50;99.90;;;;;;4894631;29;37516;-74
2023/08/06 03:18:21;;;;;;;3.20;2.90;;;15.50;99.90;;;;;;4891902;29;39066;-75
2023/08/06 03:20:47;;;;;;;3.20;2.72;;;15.40;99.90;;;;;;4893623;29;38551;-75
2023/08/06 03:23:14;;;;;;;1.50;1.40;;;15.40;99.90;;;;;;4893955;29;37384;-75
2023/08/06 03:25:40;;;;;;;2.17;1.77;;;15.40;99.90;;;;;;4896464;29;37913;-74
2023/08/06 03:28:06;;;;;;;4.75;1.25;;;15.30;99.90;;;;;;4895077;29;38707;-74
2023/08/06 03:30:32;;;;;;;2.25;1.88;;;15.30;99.90;;;;;;4894274;29;37715;-75
2023/08/06 03:32:58;;;;;;;2.65;2.30;;;15.30;99.90;;;;;;4894561;29;37576;-75
2023/08/06 03:35:24;;;;;;;2.63;2.33;;;15.30;99.90;;;;;;4894223;29;35978;-74
2023/08/06 03:37:50;;;;;;;4.25;2.88;;;15.30;99.90;;;;;;4892428;29;37723;-75
2023/08/06 03:40:16;;;;;;;4.55;3.15;;;15.30;99.90;;;;;;4895472;29;38967;-75
2023/08/06 03:42:42;;;;;;;4.97;3.83;;;15.30;99.90;;;;;;4896083;29;37722;-76
2023/08/06 03:45:09;;;;;;;5.88;4.68;;;15.30;99.90;;;;;;4895277;29;38182;-76
2023/08/06 03:47:35;;;;;;;9.05;5.75;;;15.30;99.90;;;;;;4893540;29;37604;-75
2023/08/06 03:50:01;;;;;;;8.52;6.63;;;15.30;99.90;;;;;;4896688;29;37406;-76
2023/08/06 03:52:27;;;;;;;9.13;6.82;;;15.30;99.90;;;;;;4897925;29;38082;-76
2023/08/06 03:54:53;;;;;;;6.30;3.83;;;15.30;99.90;;;;;;4892088;29;36197;-74
2023/08/06 03:57:19;;;;;;;7.00;3.80;;;15.00;99.90;;;;;;4895701;29;40712;-75
2023/08/06 03:59:45;;;;;;;5.15;3.58;;;14.90;99.90;;;;;;4893911;29;37594;-74
2023/08/06 04:02:11;;;;;;;8.10;3.72;;;14.80;99.90;;;;;;4888515;29;36998;-73
2023/08/06 04:04:37;;;;;;;6.80;3.92;;;14.60;99.90;;;;;;4887399;29;38006;-74
2023/08/06 04:07:12;;;;;;;7.70;4.28;;;14.40;99.90;;;;;;5029671;27;20461;-73
2023/08/06 04:09:57;;;;;;;10.45;4.13;;;14.30;99.90;;;;;;5006945;28;36782;-73
2023/08/06 04:12:24;;;;;;;7.60;4.32;;;14.30;99.90;;;;;;5008547;28;37683;-73
2023/08/06 04:14:52;;;;;;;12.45;4.45;;;14.30;99.90;;;;;;5010986;28;38677;-74
2023/08/06 04:17:21;;;;;;;8.45;4.70;;;14.30;99.90;;;;;;5010059;28;38404;-73
2023/08/06 04:19:52;;;;;;;10.68;5.25;;;14.30;99.90;;;;;;5010037;28;36382;-73
2023/08/06 04:22:19;;;;;;;8.50;4.65;;;14.40;99.90;;;;;;5006802;28;35688;-73
2023/08/06 04:24:45;;;;;;;11.35;4.80;;;14.40;99.90;;;;;;5009575;28;40157;-74
2023/08/06 04:27:12;;;;;;;7.35;4.35;;;14.40;99.90;;;;;;5004822;28;37323;-73
2023/08/06 04:29:39;;;;;;;7.65;4.53;;;14.30;99.90;;;;;;5004274;28;37299;-73
2023/08/06 04:32:09;;;;;;;8.95;4.63;;;14.30;99.90;;;;;;5002518;28;36276;-74
2023/08/06 04:34:36;;;;;;;12.10;5.38;;;14.30;99.90;;;;;;5003986;28;38622;-74
2023/08/06 04:37:04;;;;;;;6.07;4.32;;;14.30;99.90;;;;;;4998081;28;38495;-74
2023/08/06 04:39:31;;;;;;;8.63;4.40;;;14.40;99.90;;;;;;5010827;28;38319;-74
2023/08/06 04:42:00;;;;;;;10.75;5.35;;;14.40;99.90;;;;;;5004219;28;36909;-74
2023/08/06 04:44:26;;;;;;;9.77;5.35;;;14.40;99.90;;;;;;5003047;28;38652;-73
2023/08/06 04:46:54;;;;;;;8.27;4.53;;;14.40;99.90;;;;;;5013250;28;37301;-74
2023/08/06 04:49:23;;;;;;;13.95;6.50;;;14.40;99.90;;;;;;5017055;28;36335;-73
2023/08/06 04:51:49;;;;;;;11.35;6.35;;;14.40;99.90;;;;;;5018272;28;36366;-74
2023/08/06 04:54:15;;;;;;;12.50;6.97;;;14.40;99.90;;;;;;5002133;28;38936;-73
2023/08/06 04:56:41;;;;;;;11.85;6.30;;;14.40;99.90;;;;;;5004536;28;38107;-73
2023/08/06 04:59:07;;;;;;;14.95;7.63;;;14.40;99.90;;;;;;5000848;28;37345;-73
2023/08/06 05:01:33;;;;;;;12.57;6.43;;;14.50;99.90;;;;;;5000650;28;38323;-74
2023/08/06 05:03:59;;;;;;;11.60;6.03;;;14.50;99.90;;;;;;4997088;28;37726;-73
2023/08/06 05:06:26;;;;;;;11.43;6.70;;;14.60;99.90;;;;;;5000725;28;37114;-74
2023/08/06 05:08:52;;;;;;;13.48;6.63;;;14.60;99.90;;;;;;4999221;28;36357;-74
2023/08/06 05:11:18;;;;;;;14.70;6.93;;;14.60;99.90;;;;;;4997418;28;37111;-75
2023/08/06 05:13:44;;;;;;;15.77;7.13;;;14.60;99.90;;;;;;5007312;28;38587;-73
2023/08/06 05:16:10;;;;;;;15.30;6.57;;;14.60;99.90;;;;;;5001132;28;37155;-74
2023/08/06 05:18:37;;;;;;;16.73;7.10;;;14.60;99.90;;;;;;4990599;28;36298;-74
2023/08/06 05:21:03;;;;;;;15.95;6.45;;;14.60;99.90;;;;;;4982520;28;36303;-73
2023/08/06 05:23:29;;;;;;;14.30;6.60;;;14.60;99.90;;;;;;4989532;28;37757;-74
2023/08/06 05:25:55;;;;;;;11.50;5.97;;;14.60;99.90;;;;;;4990553;28;36927;-74
2023/08/06 05:28:21;;;;;;;16.58;7.07;;;14.60;99.90;;;;;;4999966;28;36768;-74
2023/08/06 05:30:48;;;;;;;14.65;6.28;;;14.60;99.90;;;;;;4989014;28;36668;-74
2023/08/06 05:33:14;;;;;;;11.23;5.55;;;14.60;99.90;;;;;;5021650;28;37587;-74
2023/08/06 05:35:42;;;;;;;13.18;5.70;;;14.60;99.90;;;;;;5026300;28;36902;-74
2023/08/06 05:38:08;;;;;;;13.13;5.93;;;14.60;99.90;;;;;;4990440;28;37676;-73
2023/08/06 05:40:34;;;;;;;8.48;4.55;;;14.60;99.90;;;;;;4991006;28;37251;-73
2023/08/06 05:43:00;;;;;;;13.85;4.03;;;14.60;99.90;;;;;;4991888;28;38547;-73
2023/08/06 05:45:26;;;;;;;7.43;3.47;;;14.60;99.90;;;;;;4986413;28;47376;-74
2023/08/06 05:47:54;;;;;;;6.38;3.25;;;14.60;99.90;;;;;;4989817;28;38300;-74
2023/08/06 05:50:20;;;;;;;5.72;2.65;;;14.50;99.90;;;;;;4989857;28;37415;-74
2023/08/06 05:52:46;;;;;;;5.63;2.15;;;14.50;99.90;;;;;;5006021;28;38751;-73
2023/08/06 05:55:12;;;;;;;6.82;2.38;;;14.50;99.90;;;;;;4989833;28;37039;-75
2023/08/06 05:57:38;;;;;;;6.65;2.10;;;14.40;99.90;;;;;;4990795;28;37832;-74
2023/08/06 06:00:06;;;;;;;4.32;2.10;;;14.40;99.90;;;;;;4991953;28;37305;-73
2023/08/06 06:02:32;;;;;;;5.93;2.08;;;14.40;99.90;;;;;;4987391;28;40383;-74
2023/08/06 06:04:58;;;;;;;10.27;2.28;;;14.40;99.90;;;;;;4989036;28;39057;-74
2023/08/06 06:07:24;;;;;;;7.22;2.28;;;14.40;99.90;;;;;;4988364;28;37543;-74
2023/08/06 06:09:50;;;;;;;9.48;2.95;;;14.40;99.90;;;;;;4991602;28;37244;-74
2023/08/06 06:12:16;;;;;;;7.53;2.50;;;14.40;99.90;;;;;;4984614;28;39588;-75
2023/08/06 06:14:43;;;;;;;7.70;1.77;;;14.40;99.90;;;;;;4990234;28;37291;-74
2023/08/06 06:17:09;;;;;;;7.35;2.40;;;14.40;99.90;;;;;;4998650;28;39445;-74
2023/08/06 06:19:35;;;;;;;7.93;2.35;;;14.40;99.90;;;;;;4981399;28;36885;-74
2023/08/06 06:22:01;;;;;;;3.63;1.92;;;14.40;99.90;;;;;;4988192;28;39712;-74
2023/08/06 06:24:27;;;;;;;5.60;2.20;;;14.40;99.90;;;;;;4986905;28;47514;-74
2023/08/06 06:26:53;;;;;;;7.10;2.58;;;14.40;99.90;;;;;;4994087;28;38368;-74
2023/08/06 06:29:19;;;;;;;9.80;2.92;;;14.30;99.90;;;;;;4987996;28;38060;-74
2023/08/06 06:31:45;;;;;;;8.30;2.75;;;14.40;99.90;;;;;;4987343;28;39910;-74
2023/08/06 06:34:11;;;;;;;8.30;2.80;;;14.40;99.90;;;;;;4991724;28;38164;-74
2023/08/06 06:36:37;;;;;;;9.65;3.42;;;14.30;99.90;;;;;;4986754;28;36562;-74
2023/08/06 06:39:03;;;;;;;6.85;3.03;;;14.40;99.90;;;;;;4991322;28;37525;-74
2023/08/06 06:41:31;;;;;;;6.65;2.88;;;14.40;99.90;;;;;;4992129;28;39513;-74
2023/08/06 06:43:57;;;;;;;6.88;3.17;;;14.40;99.90;;;;;;5005635;28;37085;-74
2023/08/06 06:46:23;;;;;;;7.97;2.95;;;14.40;99.90;;;;;;4990022;28;37302;-74
2023/08/06 06:48:50;;;;;;;13.57;3.80;;;14.40;99.90;;;;;;4991554;28;37268;-74
2023/08/06 06:51:16;;;;;;;13.85;3.38;;;14.50;99.90;;;;;;4990699;28;39693;-74
2023/08/06 06:53:42;;;;;;;10.43;3.40;;;14.50;99.90;;;;;;4988848;28;39412;-74
2023/08/06 06:56:08;;;;;;;5.72;3.00;;;14.50;99.90;;;;;;4990186;28;38657;-74
2023/08/06 06:58:34;;;;;;;4.38;2.45;;;14.50;99.90;;;;;;4990497;28;37930;-74
2023/08/06 07:01:00;;;;;;;7.60;3.67;;;14.50;99.90;;;;;;5005724;28;37939;-74
2023/08/06 07:03:27;;;;;;;4.68;3.10;;;14.50;99.90;;;;;;4983039;28;47034;-74
2023/08/06 07:06:00;;;;;;;5.60;2.83;;;14.60;99.90;;;;;;4989822;28;36432;-74
2023/08/06 07:08:27;;;;;;;8.35;3.08;;;14.60;99.90;;;;;;4990587;28;47602;-74
2023/08/06 07:11:03;;;;;;;5.88;2.55;;;14.70;99.90;;;;;;4978496;28;38392;-74
2023/08/06 07:13:30;;;;;;;6.70;2.60;;;14.70;99.90;;;;;;4987784;28;47308;-74
2023/08/06 07:15:56;;;;;;;8.40;2.30;;;14.80;99.90;;;;;;4991004;28;37401;-76
2023/08/06 07:18:23;;;;;;;6.55;2.20;;;14.90;99.90;;;;;;4986792;28;37401;-74
2023/08/06 07:20:50;;;;;;;7.32;1.98;;;15.00;99.90;;;;;;4986516;28;37721;-74
2023/08/06 07:23:16;;;;;;;11.05;2.17;;;15.00;99.90;;;;;;4994928;28;36947;-74
2023/08/06 07:25:42;;;;;;;8.40;1.80;;;15.00;99.90;;;;;;4989174;28;37439;-74
2023/08/06 07:28:10;;;;;;;6.47;2.00;;;15.00;99.90;;;;;;4989798;28;37462;-74
2023/08/06 07:30:39;;;;;;;9.00;1.65;;;15.10;99.90;;;;;;4982612;28;37815;-74
2023/08/06 07:33:05;;;;;;;4.07;2.00;;;15.20;99.90;;;;;;4988523;28;39108;-74
2023/08/06 07:35:31;;;;;;;9.27;2.30;;;15.20;99.90;;;;;;4989600;28;38402;-74
2023/08/06 07:37:58;;;;;;;3.03;1.25;;;15.20;99.90;;;;;;4988382;28;37244;-74
2023/08/06 07:40:24;;;;;;;6.13;1.33;;;15.20;99.90;;;;;;4984879;28;37585;-74
2023/08/06 07:42:50;;;;;;;4.53;1.33;;;15.30;99.90;;;;;;4984882;28;37313;-74
2023/08/06 07:45:16;;;;;;;5.90;1.17;;;15.40;99.90;;;;;;4979795;28;37491;-74
2023/08/06 07:47:42;;;;;;;8.05;1.90;;;15.50;99.90;;;;;;4984570;28;37351;-76
2023/08/06 07:50:09;;;;;;;6.15;1.65;;;15.50;99.90;;;;;;4981080;28;38839;-74
2023/08/06 07:52:35;;;;;;;3.22;1.30;;;15.60;99.90;;;;;;4983033;28;37319;-76
2023/08/06 07:55:04;;;;;;;8.15;1.55;;;15.70;99.90;;;;;;4989251;28;36766;-74
2023/08/06 07:57:34;;;;;;;7.43;1.52;;;15.80;99.90;;;;;;4985123;28;48950;-74
2023/08/06 08:00:01;;;;;;;5.57;1.27;;;15.80;99.90;;;;;;4983675;28;38558;-74
2023/08/06 08:02:27;;;;;;;5.97;1.45;;;15.90;99.90;;;;;;4989331;28;39266;-75
2023/08/06 08:04:53;;;;;;;6.07;1.40;;;15.90;99.90;;;;;;4994043;28;37333;-75
2023/08/06 08:07:20;;;;;;;6.95;1.70;;;16.00;99.90;;;;;;4986648;28;36960;-76
2023/08/06 08:09:48;;;;;;;6.60;0.82;;;16.10;99.90;;;;;;4983745;28;38984;-74
2023/08/06 08:12:14;;;;;;;8.82;1.40;;;16.20;99.90;;;;;;4988573;28;37359;-75
2023/08/06 08:14:40;;;;;;;7.05;0.85;;;16.20;99.90;;;;;;4983044;28;38513;-74
2023/08/06 08:17:06;;;;;;;4.40;0.95;;;16.30;99.90;;;;;;4978365;28;38049;-75
2023/08/06 08:19:33;;;;;;;3.92;0.90;;;16.40;99.90;;;;;;4982188;28;38592;-75
2023/08/06 08:21:59;;;;;;;4.32;1.00;;;16.50;99.90;;;;;;4980845;28;38272;-75
2023/08/06 08:24:25;;;;;;;5.05;1.27;;;16.60;99.90;;;;;;4980110;28;36429;-76
2023/08/06 08:26:52;;;;;;;7.63;1.23;;;16.60;99.90;;;;;;4994344;28;36133;-75
2023/08/06 08:29:19;;;;;;;7.43;1.70;;;16.60;99.90;;;;;;4985216;28;39666;-75
2023/08/06 08:31:48;;;;;;;3.88;1.10;;;16.60;99.90;;;;;;4992022;28;38599;-75
2023/08/06 08:34:14;;;;;;;5.18;1.20;;;16.70;99.90;;;;;;4993862;28;36841;-76
2023/08/06 08:36:40;;;;;;;2.55;1.10;;;16.80;99.90;;;;;;5003000;28;35809;-75
2023/08/06 08:39:06;;;;;;;5.35;1.50;;;16.90;99.90;;;;;;4973812;28;38359;-75
2023/08/06 08:41:35;;;;;;;7.55;1.48;;;16.90;99.90;;;;;;4993676;28;37539;-76
2023/08/06 08:44:02;;;;;;;5.30;1.00;;;16.90;99.90;;;;;;4977847;28;37608;-75
2023/08/06 08:46:30;;;;;;;5.65;1.30;;;16.90;99.90;;;;;;4989113;28;47400;-77
2023/08/06 08:48:59;;;;;;;7.63;1.33;;;17.00;99.90;;;;;;4981188;28;38463;-75
2023/08/06 08:51:27;;;;;;;6.82;1.40;;;17.10;99.90;;;;;;4985133;28;36720;-74
2023/08/06 08:53:57;;;;;;;4.93;1.40;;;17.20;99.90;;;;;;4983007;28;38309;-74
2023/08/06 08:56:24;;;;;;;4.85;1.58;;;17.20;99.90;;;;;;5002514;28;36271;-74
2023/08/06 08:58:53;;;;;;;3.50;1.10;;;17.20;99.90;;;;;;4998593;28;37962;-75
2023/08/06 09:01:20;;;;;;;4.95;1.52;;;17.10;99.90;;;;;;4989021;28;37050;-74
2023/08/06 09:03:47;;;;;;;4.38;1.10;;;16.90;99.90;;;;;;4985742;28;36592;-75
2023/08/06 09:06:14;;;;;;;5.25;1.48;;;16.80;99.90;;;;;;4986742;28;37246;-74
2023/08/06 09:08:49;;;;;;;5.72;1.38;;;16.70;99.90;;;;;;4984191;28;38645;-75
2023/08/06 09:11:17;;;;;;;6.82;1.48;;;16.70;99.90;;;;;;4984984;28;37207;-73
2023/08/06 09:13:43;;;;;;;2.85;1.27;;;16.90;99.90;;;;;;4985649;28;37507;-74
2023/08/06 09:16:09;;;;;;;7.47;1.30;;;16.90;99.90;;;;;;4982258;28;37219;-74
2023/08/06 09:18:39;;;;;;;8.95;1.85;;;17.00;99.90;;;;;;4985474;28;39061;-76
2023/08/06 09:21:05;;;;;;;4.03;1.23;;;17.00;99.90;;;;;;4989003;28;37123;-73
2023/08/06 09:23:33;;;;;;;4.82;1.65;;;17.00;99.90;;;;;;4982354;28;37371;-76
2023/08/06 09:25:59;;;;;;;2.22;1.02;;;17.20;99.90;;;;;;4975027;28;36439;-76
2023/08/06 09:28:42;;;;;;;4.85;1.20;;;17.30;99.90;;;;;;4979588;28;39911;-76
2023/08/06 09:31:09;;;;;;;4.28;1.33;;;17.40;99.90;;;;;;4973581;28;39047;-75
2023/08/06 09:33:37;;;;;;;3.10;1.33;;;17.50;99.90;;;;;;4983097;28;36831;-74
2023/08/06 09:36:13;;;;;;;3.90;1.30;;;17.50;99.90;;;;;;4976997;28;36300;-76
2023/08/06 09:38:40;;;;;;;3.33;1.20;;;17.50;99.90;;;;;;4993757;28;38062;-74
2023/08/06 09:41:07;;;;;;;2.53;0.80;;;17.70;99.90;;;;;;4988409;28;38216;-72
2023/08/06 09:43:41;;;;;;;3.22;1.10;;;17.90;99.90;;;;;;4977608;28;37470;-75
2023/08/06 09:46:14;;;;;;;5.13;1.35;;;17.80;99.90;;;;;;4978515;28;37094;-76
2023/08/06 09:48:41;;;;;;;4.30;1.20;;;17.80;99.90;;;;;;4984426;28;39328;-75
2023/08/06 09:51:08;;;;;;;2.20;1.38;;;17.80;99.90;;;;;;4994746;28;37553;-77
2023/08/06 09:53:36;;;;;;;2.80;1.20;;;18.10;99.90;;;;;;4999523;28;37690;-77
2023/08/06 09:56:03;;;;;;;4.45;1.42;;;18.30;99.90;;;;;;4978219;28;37504;-74
2023/08/06 09:58:32;;;;;;;3.05;1.30;;;18.50;99.90;;;;;;4980341;28;38069;-80
2023/08/06 10:00:59;;;;;;;3.47;1.30;;;18.80;99.90;;;;;;4978951;28;37327;-76
2023/08/06 10:03:26;;;;;;;4.30;1.30;;;19.10;99.90;;;;;;4975211;28;37733;-75
2023/08/06 10:05:52;;;;;;;4.88;1.60;;;19.30;99.50;;;;;;4978459;28;38013;-76
2023/08/06 10:08:19;;;;;;;5.90;1.60;;;19.00;99.90;;;;;;4974929;28;39394;-75
2023/08/06 10:10:45;;;;;;;2.50;1.10;;;18.60;99.90;;;;;;4985720;28;37412;-75
2023/08/06 10:13:13;;;;;;;4.05;1.38;;;18.30;99.90;;;;;;4979576;28;37889;-78
2023/08/06 10:15:40;;;;;;;3.33;1.27;;;18.30;99.90;;;;;;4982054;28;37504;-79
2023/08/06 10:18:06;;;;;;;4.00;1.60;;;18.20;99.90;;;;;;4981795;28;37509;-74
2023/08/06 10:20:36;;;;;;;4.45;1.45;;;18.20;99.90;;;;;;4986324;28;38670;-74
2023/08/06 10:23:04;;;;;;;3.00;1.30;;;18.20;99.90;;;;;;4982115;28;38349;-75
2023/08/06 10:25:34;;;;;;;3.08;1.55;;;18.10;99.90;;;;;;4983971;28;38114;-76
2023/08/06 10:28:07;;;;;;;2.88;1.20;;;18.00;99.90;;;;;;4978470;28;40102;-76
2023/08/06 10:30:33;;;;;;;3.58;1.88;;;17.90;99.90;;;;;;4984150;28;47334;-77
2023/08/06 10:33:04;;;;;;;4.07;1.40;;;17.80;99.90;;;;;;4989073;28;38305;-77
2023/08/06 10:35:49;;;;;;;3.25;1.20;;;17.60;99.90;;;;;;4988735;28;47298;-77
2023/08/06 10:38:22;;;;;;;7.80;1.85;;;17.50;99.90;;;;;;4984688;28;38911;-77
2023/08/06 10:41:00;;;;;;;5.45;1.38;;;17.50;99.90;;;;;;4984332;28;38992;-77
2023/08/06 10:43:29;;;;;;;4.93;1.70;;;17.50;99.90;;;;;;4984868;28;39631;-77
2023/08/06 10:45:57;;;;;;;5.55;1.52;;;17.50;99.90;;;;;;4979756;28;37281;-77
2023/08/06 10:48:45;;;;;;;6.80;1.30;;;17.40;99.90;;;;;;4985288;28;38717;-78
2023/08/06 10:51:13;;;;;;;5.63;1.52;;;17.40;99.90;;;;;;4981621;28;39290;-76
2023/08/06 10:53:47;;;;;;;10.70;1.80;;;17.50;99.90;;;;;;4984280;28;36911;-75
2023/08/06 10:56:18;;;;;;;9.75;1.50;;;17.70;99.90;;;;;;4978881;28;37398;-74
2023/08/06 10:58:45;;;;;;;4.63;1.20;;;17.80;99.90;;;;;;4982064;28;37694;-75
2023/08/06 11:01:11;;;;;;;5.03;1.38;;;17.80;99.90;;;;;;4985672;28;38294;-75
2023/08/06 11:03:39;;;;;;;4.55;1.27;;;17.70;99.90;;;;;;4988224;28;37969;-76
2023/08/06 11:06:07;;;;;;;5.95;1.13;;;17.70;99.90;;;;;;4982138;28;37865;-76
2023/08/06 11:08:35;;;;;;;6.18;1.73;;;17.70;99.90;;;;;;4977520;28;39107;-77
2023/08/06 11:11:13;;;;;;;2.50;1.00;;;17.70;99.90;;;;;;4978687;28;38439;-75
2023/08/06 11:13:44;;;;;;;4.53;1.05;;;17.80;99.90;;;;;;4991453;28;40124;-76
2023/08/06 11:16:10;;;;;;;7.63;1.20;;;18.00;99.90;;;;;;4984844;28;38224;-76
2023/08/06 11:18:36;;;;;;;4.72;1.20;;;18.30;99.90;;;;;;4978996;28;37806;-76
2023/08/06 11:21:03;;;;;;;4.43;1.05;;;18.30;99.90;;;;;;4977060;28;37477;-76
2023/08/06 11:23:29;;;;;;;4.03;1.20;;;18.40;99.90;;;;;;4984894;28;37843;-78
2023/08/06 11:25:56;;;;;;;3.95;1.65;;;18.60;99.90;;;;;;4974903;28;38111;-78
2023/08/06 11:28:23;;;;;;;5.60;1.42;;;18.60;99.90;;;;;;4984242;28;38885;-77
2023/08/06 11:30:50;;;;;;;4.68;1.27;;;18.70;99.90;;;;;;4981579;28;37773;-77
2023/08/06 11:33:25;;;;;;;4.40;1.23;;;18.90;99.90;;;;;;4987942;28;38068;-77
2023/08/06 11:35:52;;;;;;;8.43;1.27;;;18.70;99.90;;;;;;4977360;28;35440;-77
2023/08/06 11:38:18;;;;;;;4.63;1.08;;;18.50;99.90;;;;;;4984818;28;37941;-76
2023/08/06 11:40:45;;;;;;;1.65;0.70;;;18.30;99.90;;;;;;4974573;28;38689;-76
2023/08/06 11:43:15;;;;;;;5.88;1.00;;;18.40;99.90;;;;;;4971228;28;35273;-76
2023/08/06 11:45:41;;;;;;;5.13;1.23;;;18.50;99.90;;;;;;4981846;28;37314;-76
2023/08/06 11:48:10;;;;;;;2.17;0.85;;;18.60;99.90;;;;;;4976384;28;39094;-78
2023/08/06 11:50:40;;;;;;;4.53;1.45;;;18.60;99.90;;;;;;4984344;28;38220;-77
2023/08/06 11:53:06;;;;;;;1.85;0.68;;;18.70;99.90;;;;;;4983565;28;36643;-77
2023/08/06 11:55:33;;;;;;;3.05;1.10;;;18.30;99.90;;;;;;4979277;28;36967;-77
2023/08/06 11:58:04;;;;;;;2.45;1.08;;;18.30;99.90;;;;;;4975419;28;39253;-77
2023/08/06 12:00:30;;;;;;;6.32;1.50;;;18.50;99.90;;;;;;4975379;28;47063;-74
2023/08/06 12:03:04;;;;;;;9.98;2.05;;;18.60;99.90;;;;;;4979308;28;38744;-81
2023/08/06 12:05:33;;;;;;;4.93;1.30;;;18.60;99.90;;;;;;4995130;28;47139;-76
2023/08/06 12:08:00;;;;;;;6.05;1.60;;;18.60;99.90;;;;;;4977680;28;39340;-77
2023/08/06 12:10:28;;;;;;;2.70;1.50;;;18.60;99.90;;;;;;4982847;28;48594;-75
2023/08/06 12:12:55;;;;;;;2.83;1.10;;;18.40;99.90;;;;;;4980215;28;37579;-76
2023/08/06 12:15:22;;;;;;;3.42;1.20;;;18.30;99.90;;;;;;4974077;28;36209;-74
2023/08/06 12:17:48;;;;;;;3.42;1.33;;;18.40;99.90;;;;;;4981318;28;38672;-75
2023/08/06 12:20:15;;;;;;;3.83;1.25;;;18.50;99.90;;;;;;4993151;28;37199;-75
2023/08/06 12:22:41;;;;;;;2.33;0.93;;;18.50;99.90;;;;;;4976160;28;36739;-74
2023/08/06 12:25:11;;;;;;;2.50;0.88;;;18.50;99.90;;;;;;4985482;28;37166;-75
2023/08/06 12:27:39;;;;;;;3.70;0.88;;;18.40;99.90;;;;;;5019744;28;38547;-75
2023/08/06 12:30:06;;;;;;;2.30;1.00;;;18.40;99.90;;;;;;4996263;28;37011;-75
2023/08/06 12:32:33;;;;;;;4.10;1.00;;;18.40;99.90;;;;;;4989069;28;48661;-75
2023/08/06 12:35:00;;;;;;;3.17;0.73;;;18.20;99.90;;;;;;4993637;28;36995;-76
2023/08/06 12:37:27;;;;;;;3.67;1.10;;;18.20;99.90;;;;;;4989427;28;39313;-75
2023/08/06 12:39:54;;;;;;;8.18;1.05;;;18.20;99.90;;;;;;4997861;28;38189;-75
2023/08/06 12:42:20;;;;;;;4.05;1.00;;;18.30;99.90;;;;;;4994716;28;36776;-75
2023/08/06 12:44:48;;;;;;;3.72;0.98;;;18.40;99.90;;;;;;4994774;28;35889;-75